NKS886 TNCA-KFLL
Flight info
| Callsign | NKS886 |
|---|---|
| Flight time | 3h 1m |
| Altitude | 34000 |
| Route | KISAS1F KISAS DCT JOSES Y398 KNSLY Y350 ZQA OLAHS3 |
| Aircraft | A321/M-SDE3FGHIRWY/LB1 |
Departure
| Time | 2026-05-03 20:32 |
|---|---|
| Airport | Queen Beatrix International Airport (TNCA) |
Arrival
| Time | 2026-05-03 23:33 |
|---|---|
| Airport | Fort Lauderdale Hollywood International Airport (KFLL) |
| Time | Latitude | Longitude | Altitude | Speed | Heading |
|---|---|---|---|---|---|
| 2026-05-03 20:15 | 12.50251 | -70.00705 | 46 ft | 0 kts | 14° |
| 2026-05-03 20:15 | 12.50250 | -70.00705 | 46 ft | 2 kts | 14° |
| 2026-05-03 20:15 | 12.50227 | -70.00707 | 46 ft | 4 kts | 342° |
| 2026-05-03 20:16 | 12.50205 | -70.00695 | 46 ft | 2 kts | 320° |
| 2026-05-03 20:16 | 12.50203 | -70.00693 | 46 ft | 0 kts | 320° |
| 2026-05-03 20:16 | 12.50202 | -70.00693 | 46 ft | 2 kts | 320° |
| 2026-05-03 20:17 | 12.50188 | -70.00681 | 47 ft | 3 kts | 320° |
| 2026-05-03 20:17 | 12.50176 | -70.00668 | 47 ft | 3 kts | 276° |
| 2026-05-03 20:17 | 12.50176 | -70.00664 | 47 ft | 0 kts | 276° |
| 2026-05-03 20:20 | 12.50177 | -70.00675 | 47 ft | 3 kts | 276° |
| 2026-05-03 20:20 | 12.50181 | -70.00715 | 47 ft | 8 kts | 277° |
| 2026-05-03 20:20 | 12.50197 | -70.00786 | 47 ft | 12 kts | 284° |
| 2026-05-03 20:21 | 12.50216 | -70.00867 | 47 ft | 12 kts | 283° |
| 2026-05-03 20:21 | 12.50236 | -70.00950 | 47 ft | 12 kts | 283° |
| 2026-05-03 20:21 | 12.50256 | -70.01035 | 47 ft | 13 kts | 283° |
| 2026-05-03 20:21 | 12.50239 | -70.01118 | 47 ft | 12 kts | 241° |
| 2026-05-03 20:22 | 12.50242 | -70.01202 | 47 ft | 13 kts | 283° |
| 2026-05-03 20:22 | 12.50265 | -70.01299 | 46 ft | 15 kts | 283° |
| 2026-05-03 20:22 | 12.50292 | -70.01416 | 46 ft | 18 kts | 283° |
| 2026-05-03 20:22 | 12.50324 | -70.01548 | 46 ft | 19 kts | 283° |
| 2026-05-03 20:23 | 12.50355 | -70.01683 | 46 ft | 20 kts | 283° |
| 2026-05-03 20:23 | 12.50388 | -70.01820 | 43 ft | 20 kts | 283° |
| 2026-05-03 20:23 | 12.50421 | -70.01959 | 45 ft | 20 kts | 283° |
| 2026-05-03 20:23 | 12.50454 | -70.02100 | 44 ft | 20 kts | 284° |
| 2026-05-03 20:24 | 12.50477 | -70.02193 | 44 ft | 20 kts | 283° |
| 2026-05-03 20:24 | 12.50510 | -70.02335 | 44 ft | 21 kts | 283° |
| 2026-05-03 20:24 | 12.50543 | -70.02476 | 44 ft | 20 kts | 283° |
| 2026-05-03 20:24 | 12.50566 | -70.02569 | 44 ft | 10 kts | 284° |
| 2026-05-03 20:25 | 12.50579 | -70.02637 | 44 ft | 8 kts | 268° |
| 2026-05-03 20:25 | 12.50553 | -70.02694 | 41 ft | 8 kts | 241° |
| 2026-05-03 20:25 | 12.50523 | -70.02714 | 41 ft | 1 kts | 194° |
| 2026-05-03 20:29 | 12.50508 | -70.02718 | 40 ft | 5 kts | 194° |
| 2026-05-03 20:30 | 12.50453 | -70.02732 | 35 ft | 7 kts | 194° |
| 2026-05-03 20:30 | 12.50422 | -70.02728 | 35 ft | 3 kts | 131° |
| 2026-05-03 20:30 | 12.50420 | -70.02715 | 35 ft | 0 kts | 102° |
| 2026-05-03 20:31 | 12.50419 | -70.02711 | 35 ft | 4 kts | 102° |
| 2026-05-03 20:31 | 12.50371 | -70.02502 | 35 ft | 64 kts | 103° |
| 2026-05-03 20:31 | 12.50214 | -70.01843 | 43 ft | 124 kts | 103° |
| 2026-05-03 20:31 | 12.49971 | -70.00817 | 110 ft | 166 kts | 104° |
| 2026-05-03 20:32 | 12.49709 | -69.99726 | 940 ft | 155 kts | 102° |
| 2026-05-03 20:32 | 12.49451 | -69.98643 | 1400 ft | 162 kts | 102° |
| 2026-05-03 20:32 | 12.49179 | -69.97469 | 1600 ft | 176 kts | 101° |
| 2026-05-03 20:32 | 12.48885 | -69.96188 | 1770 ft | 191 kts | 103° |
| 2026-05-03 20:33 | 12.48584 | -69.94798 | 1887 ft | 210 kts | 96° |
| 2026-05-03 20:33 | 12.48904 | -69.93304 | 2009 ft | 232 kts | 56° |
| 2026-05-03 20:33 | 12.50223 | -69.92262 | 2319 ft | 254 kts | 26° |
| 2026-05-03 20:33 | 12.51952 | -69.91749 | 2904 ft | 262 kts | 17° |
| 2026-05-03 20:34 | 12.53755 | -69.91411 | 3554 ft | 265 kts | 15° |
| 2026-05-03 20:34 | 12.55584 | -69.91078 | 4144 ft | 268 kts | 15° |
| 2026-05-03 20:34 | 12.57425 | -69.90690 | 4679 ft | 272 kts | 17° |
| 2026-05-03 20:34 | 12.59273 | -69.90247 | 5236 ft | 274 kts | 18° |
| 2026-05-03 20:35 | 12.61132 | -69.89758 | 5767 ft | 278 kts | 19° |
| 2026-05-03 20:35 | 12.63011 | -69.89232 | 6290 ft | 281 kts | 19° |
| 2026-05-03 20:35 | 12.64909 | -69.88686 | 6817 ft | 285 kts | 19° |
| 2026-05-03 20:35 | 12.66831 | -69.88125 | 7370 ft | 288 kts | 19° |
| 2026-05-03 20:36 | 12.68768 | -69.87553 | 7883 ft | 291 kts | 19° |
| 2026-05-03 20:36 | 12.70699 | -69.86980 | 8377 ft | 295 kts | 19° |
| 2026-05-03 20:36 | 12.72681 | -69.86396 | 8871 ft | 298 kts | 19° |
| 2026-05-03 20:36 | 12.74679 | -69.85807 | 9354 ft | 300 kts | 18° |
| 2026-05-03 20:37 | 12.76691 | -69.85214 | 9834 ft | 302 kts | 18° |
| 2026-05-03 20:37 | 12.78735 | -69.84613 | 10147 ft | 312 kts | 18° |
| 2026-05-03 20:37 | 12.80867 | -69.83987 | 10278 ft | 326 kts | 18° |
| 2026-05-03 20:37 | 12.83099 | -69.83337 | 10410 ft | 340 kts | 18° |
| 2026-05-03 20:38 | 12.85423 | -69.82661 | 10536 ft | 354 kts | 18° |
| 2026-05-03 20:38 | 12.87836 | -69.81956 | 10652 ft | 367 kts | 18° |
| 2026-05-03 20:38 | 12.90321 | -69.81229 | 10936 ft | 373 kts | 18° |
| 2026-05-03 20:38 | 12.92804 | -69.80519 | 11597 ft | 370 kts | 14° |
| 2026-05-03 20:39 | 12.95360 | -69.80175 | 12080 ft | 373 kts | 2° |
| 2026-05-03 20:39 | 12.97962 | -69.80383 | 12535 ft | 377 kts | 351° |
| 2026-05-03 20:39 | 13.00492 | -69.81140 | 12966 ft | 381 kts | 339° |
| 2026-05-03 20:39 | 13.02938 | -69.82226 | 13403 ft | 384 kts | 338° |
| 2026-05-03 20:40 | 13.05395 | -69.83328 | 13819 ft | 387 kts | 337° |
| 2026-05-03 20:40 | 13.07876 | -69.84438 | 14267 ft | 390 kts | 338° |
| 2026-05-03 20:40 | 13.10371 | -69.85550 | 14663 ft | 393 kts | 337° |
| 2026-05-03 20:40 | 13.12883 | -69.86668 | 15102 ft | 394 kts | 338° |
| 2026-05-03 20:41 | 13.15411 | -69.87793 | 15492 ft | 397 kts | 337° |
| 2026-05-03 20:41 | 13.17956 | -69.88929 | 15885 ft | 400 kts | 337° |
| 2026-05-03 20:41 | 13.20519 | -69.90072 | 16285 ft | 403 kts | 337° |
| 2026-05-03 20:41 | 13.23125 | -69.91230 | 16460 ft | 412 kts | 337° |
| 2026-05-03 20:42 | 13.25769 | -69.92406 | 16772 ft | 416 kts | 337° |
| 2026-05-03 20:42 | 13.28435 | -69.93595 | 17153 ft | 419 kts | 337° |
| 2026-05-03 20:42 | 13.31120 | -69.94796 | 17522 ft | 423 kts | 337° |
| 2026-05-03 20:42 | 13.33828 | -69.96006 | 17903 ft | 425 kts | 336° |
| 2026-05-03 20:43 | 13.36513 | -69.97207 | 18299 ft | 428 kts | 336° |
| 2026-05-03 20:43 | 13.39251 | -69.98429 | 18696 ft | 429 kts | 336° |
| 2026-05-03 20:43 | 13.41998 | -69.99654 | 19087 ft | 431 kts | 336° |
| 2026-05-03 20:43 | 13.44757 | -70.00883 | 19465 ft | 433 kts | 336° |
| 2026-05-03 20:44 | 13.47525 | -70.02122 | 19837 ft | 435 kts | 336° |
| 2026-05-03 20:44 | 13.50301 | -70.03369 | 20198 ft | 436 kts | 336° |
| 2026-05-03 20:44 | 13.53083 | -70.04617 | 20532 ft | 437 kts | 336° |
| 2026-05-03 20:44 | 13.55877 | -70.05865 | 20865 ft | 438 kts | 336° |
| 2026-05-03 20:45 | 13.58663 | -70.07105 | 21181 ft | 440 kts | 336° |
| 2026-05-03 20:45 | 13.61499 | -70.08365 | 21492 ft | 441 kts | 336° |
| 2026-05-03 20:45 | 13.64322 | -70.09628 | 21796 ft | 443 kts | 335° |
| 2026-05-03 20:45 | 13.67150 | -70.10896 | 22101 ft | 444 kts | 335° |
| 2026-05-03 20:46 | 13.69985 | -70.12170 | 22410 ft | 445 kts | 335° |
| 2026-05-03 20:46 | 13.72827 | -70.13445 | 22684 ft | 446 kts | 335° |
| 2026-05-03 20:46 | 13.75676 | -70.14718 | 22957 ft | 447 kts | 335° |
| 2026-05-03 20:46 | 13.78533 | -70.15993 | 23220 ft | 448 kts | 335° |
| 2026-05-03 20:47 | 13.81400 | -70.17274 | 23480 ft | 450 kts | 335° |
| 2026-05-03 20:47 | 13.84270 | -70.18556 | 23739 ft | 451 kts | 335° |
| 2026-05-03 20:47 | 13.87148 | -70.19843 | 23979 ft | 451 kts | 335° |
| 2026-05-03 20:47 | 13.89058 | -70.20701 | 24139 ft | 452 kts | 335° |
| 2026-05-03 20:50 | 13.94044 | -70.23104 | 24503 ft | 454 kts | 334° |
| 2026-05-03 20:50 | 13.96945 | -70.24406 | 24726 ft | 455 kts | 335° |
| 2026-05-03 20:50 | 13.99871 | -70.25664 | 24957 ft | 457 kts | 336° |
| 2026-05-03 20:51 | 14.02772 | -70.26903 | 25183 ft | 458 kts | 336° |
| 2026-05-03 20:51 | 14.05717 | -70.28178 | 25406 ft | 459 kts | 335° |
| 2026-05-03 20:51 | 14.08660 | -70.29473 | 25620 ft | 460 kts | 335° |
| 2026-05-03 20:51 | 14.11603 | -70.30789 | 25834 ft | 462 kts | 335° |
| 2026-05-03 20:52 | 14.14547 | -70.32117 | 26038 ft | 463 kts | 335° |
| 2026-05-03 20:52 | 14.17503 | -70.33458 | 26244 ft | 464 kts | 334° |
| 2026-05-03 20:52 | 14.20456 | -70.34803 | 26446 ft | 465 kts | 335° |
| 2026-05-03 20:52 | 14.23424 | -70.36145 | 26633 ft | 467 kts | 335° |
| 2026-05-03 20:53 | 14.26406 | -70.37488 | 26832 ft | 468 kts | 335° |
| 2026-05-03 20:53 | 14.29396 | -70.38833 | 27027 ft | 469 kts | 335° |
| 2026-05-03 20:53 | 14.32391 | -70.40178 | 27223 ft | 470 kts | 335° |
| 2026-05-03 20:53 | 14.35394 | -70.41526 | 27414 ft | 471 kts | 335° |
| 2026-05-03 20:54 | 14.38402 | -70.42878 | 27613 ft | 473 kts | 335° |
| 2026-05-03 20:54 | 14.44407 | -70.45583 | 28027 ft | 475 kts | 335° |
| 2026-05-03 20:54 | 14.47436 | -70.46953 | 28205 ft | 477 kts | 335° |
| 2026-05-03 20:55 | 14.50471 | -70.48329 | 28441 ft | 476 kts | 335° |
| 2026-05-03 20:55 | 14.53506 | -70.49699 | 28715 ft | 475 kts | 335° |
| 2026-05-03 20:55 | 14.56532 | -70.51061 | 28973 ft | 474 kts | 335° |
| 2026-05-03 20:55 | 14.59554 | -70.52419 | 29229 ft | 473 kts | 335° |
| 2026-05-03 20:56 | 14.62569 | -70.53778 | 29485 ft | 472 kts | 335° |
| 2026-05-03 20:56 | 14.65578 | -70.55141 | 29722 ft | 472 kts | 335° |
| 2026-05-03 20:56 | 14.68583 | -70.56504 | 29972 ft | 471 kts | 335° |
| 2026-05-03 20:56 | 14.71580 | -70.57861 | 30221 ft | 470 kts | 335° |
| 2026-05-03 20:57 | 14.74575 | -70.59216 | 30478 ft | 469 kts | 335° |
| 2026-05-03 20:57 | 14.77565 | -70.60563 | 30730 ft | 468 kts | 335° |
| 2026-05-03 20:57 | 14.80553 | -70.61911 | 30969 ft | 468 kts | 335° |
| 2026-05-03 20:57 | 14.83532 | -70.63257 | 31207 ft | 467 kts | 335° |
| 2026-05-03 20:58 | 14.86508 | -70.64600 | 31458 ft | 466 kts | 335° |
| 2026-05-03 20:58 | 14.89475 | -70.65942 | 31699 ft | 465 kts | 335° |
| 2026-05-03 20:58 | 14.92435 | -70.67284 | 31922 ft | 464 kts | 335° |
| 2026-05-03 20:58 | 14.95389 | -70.68625 | 32168 ft | 463 kts | 335° |
| 2026-05-03 20:59 | 14.98298 | -70.69945 | 32403 ft | 462 kts | 335° |
| 2026-05-03 20:59 | 15.01242 | -70.71278 | 32632 ft | 461 kts | 335° |
| 2026-05-03 20:59 | 15.04181 | -70.72606 | 32856 ft | 460 kts | 335° |
| 2026-05-03 20:59 | 15.07118 | -70.73937 | 33074 ft | 460 kts | 335° |
| 2026-05-03 21:00 | 15.10045 | -70.75266 | 33279 ft | 459 kts | 335° |
| 2026-05-03 21:00 | 15.11034 | -70.75716 | 33350 ft | 459 kts | 335° |
| 2026-05-03 21:00 | 15.15882 | -70.77924 | 33684 ft | 458 kts | 335° |
| 2026-05-03 21:00 | 15.18789 | -70.79250 | 33887 ft | 457 kts | 335° |
| 2026-05-03 21:01 | 15.24611 | -70.81892 | 33981 ft | 456 kts | 336° |
| 2026-05-03 21:01 | 15.30412 | -70.84525 | 33981 ft | 455 kts | 336° |
| 2026-05-03 21:02 | 15.36213 | -70.87158 | 33980 ft | 456 kts | 336° |
| 2026-05-03 21:02 | 15.42020 | -70.89804 | 33980 ft | 456 kts | 335° |
| 2026-05-03 21:03 | 15.47831 | -70.92453 | 33984 ft | 456 kts | 336° |
| 2026-05-03 21:03 | 15.53608 | -70.95085 | 33991 ft | 457 kts | 336° |
| 2026-05-03 21:04 | 15.59431 | -70.97727 | 34001 ft | 457 kts | 336° |
| 2026-05-03 21:04 | 15.65249 | -71.00380 | 34005 ft | 457 kts | 335° |
| 2026-05-03 21:05 | 15.71071 | -71.03050 | 34004 ft | 457 kts | 335° |
| 2026-05-03 21:05 | 15.76893 | -71.05713 | 34004 ft | 457 kts | 336° |
| 2026-05-03 21:06 | 15.82724 | -71.08372 | 34008 ft | 457 kts | 336° |
| 2026-05-03 21:06 | 15.88551 | -71.11038 | 34010 ft | 458 kts | 336° |
| 2026-05-03 21:07 | 15.94386 | -71.13710 | 34005 ft | 458 kts | 336° |
| 2026-05-03 21:07 | 16.00220 | -71.16385 | 34006 ft | 458 kts | 335° |
| 2026-05-03 21:08 | 16.06020 | -71.19137 | 34002 ft | 458 kts | 334° |
| 2026-05-03 21:08 | 16.11751 | -71.21950 | 34003 ft | 459 kts | 334° |
| 2026-05-03 21:09 | 16.17536 | -71.24779 | 34003 ft | 459 kts | 334° |
| 2026-05-03 21:09 | 16.23337 | -71.27583 | 34007 ft | 460 kts | 335° |
| 2026-05-03 21:10 | 16.29139 | -71.30386 | 34010 ft | 460 kts | 335° |
| 2026-05-03 21:10 | 16.34937 | -71.33204 | 34006 ft | 459 kts | 334° |
| 2026-05-03 21:11 | 16.40727 | -71.36028 | 34001 ft | 459 kts | 334° |
| 2026-05-03 21:11 | 16.46523 | -71.38840 | 33998 ft | 459 kts | 335° |
| 2026-05-03 21:12 | 16.52315 | -71.41649 | 33996 ft | 459 kts | 335° |
| 2026-05-03 21:12 | 16.57124 | -71.43993 | 33997 ft | 459 kts | 334° |
| 2026-05-03 21:13 | 16.62909 | -71.46818 | 33996 ft | 459 kts | 334° |
| 2026-05-03 21:13 | 16.68703 | -71.49633 | 33997 ft | 459 kts | 334° |
| 2026-05-03 21:14 | 16.74503 | -71.52440 | 33998 ft | 460 kts | 334° |
| 2026-05-03 21:14 | 16.80297 | -71.55260 | 33998 ft | 460 kts | 334° |
| 2026-05-03 21:15 | 16.86089 | -71.58095 | 33997 ft | 460 kts | 334° |
| 2026-05-03 21:15 | 16.91884 | -71.60930 | 33999 ft | 460 kts | 334° |
| 2026-05-03 21:16 | 16.97682 | -71.63762 | 34000 ft | 460 kts | 334° |
| 2026-05-03 21:16 | 17.03479 | -71.66598 | 34002 ft | 460 kts | 334° |
| 2026-05-03 21:17 | 17.09235 | -71.69420 | 34006 ft | 460 kts | 334° |
| 2026-05-03 21:17 | 17.15030 | -71.72261 | 34004 ft | 460 kts | 334° |
| 2026-05-03 21:18 | 17.20827 | -71.75097 | 34007 ft | 460 kts | 334° |
| 2026-05-03 21:18 | 17.26629 | -71.77939 | 34004 ft | 461 kts | 334° |
| 2026-05-03 21:19 | 17.32431 | -71.80789 | 34008 ft | 460 kts | 334° |
| 2026-05-03 21:19 | 17.38232 | -71.83639 | 34010 ft | 460 kts | 334° |
| 2026-05-03 21:20 | 17.44036 | -71.86494 | 34010 ft | 461 kts | 334° |
| 2026-05-03 21:20 | 17.49843 | -71.89351 | 34008 ft | 460 kts | 334° |
| 2026-05-03 21:21 | 17.55601 | -71.92184 | 34003 ft | 461 kts | 334° |
| 2026-05-03 21:21 | 17.61449 | -71.95059 | 34007 ft | 461 kts | 334° |
| 2026-05-03 21:22 | 17.67215 | -71.97905 | 34008 ft | 461 kts | 334° |
| 2026-05-03 21:22 | 17.73019 | -72.00776 | 34009 ft | 461 kts | 334° |
| 2026-05-03 21:23 | 17.78823 | -72.03640 | 34005 ft | 461 kts | 334° |
| 2026-05-03 21:23 | 17.84634 | -72.06510 | 34002 ft | 461 kts | 334° |
| 2026-05-03 21:24 | 17.90442 | -72.09383 | 33997 ft | 461 kts | 334° |
| 2026-05-03 21:24 | 17.96249 | -72.12257 | 33996 ft | 461 kts | 334° |
| 2026-05-03 21:25 | 18.02057 | -72.15134 | 33993 ft | 461 kts | 334° |
| 2026-05-03 21:25 | 18.07864 | -72.18010 | 33994 ft | 461 kts | 334° |
| 2026-05-03 21:26 | 18.13661 | -72.20890 | 33995 ft | 461 kts | 334° |
| 2026-05-03 21:26 | 18.19463 | -72.23774 | 33997 ft | 461 kts | 334° |
| 2026-05-03 21:27 | 18.25269 | -72.26649 | 33997 ft | 461 kts | 334° |
| 2026-05-03 21:27 | 18.31042 | -72.29509 | 33999 ft | 461 kts | 334° |
| 2026-05-03 21:28 | 18.36845 | -72.32398 | 33999 ft | 461 kts | 333° |
| 2026-05-03 21:28 | 18.42645 | -72.35298 | 33998 ft | 461 kts | 334° |
| 2026-05-03 21:29 | 18.48450 | -72.38188 | 33996 ft | 461 kts | 334° |
| 2026-05-03 21:29 | 18.54250 | -72.41071 | 33993 ft | 461 kts | 333° |
| 2026-05-03 21:30 | 18.60048 | -72.43961 | 33993 ft | 461 kts | 333° |
| 2026-05-03 21:30 | 18.65844 | -72.46855 | 33994 ft | 461 kts | 333° |
| 2026-05-03 21:31 | 18.71592 | -72.49735 | 33998 ft | 461 kts | 333° |
| 2026-05-03 21:31 | 18.77386 | -72.52628 | 34001 ft | 461 kts | 333° |
| 2026-05-03 21:32 | 18.83176 | -72.55519 | 34001 ft | 460 kts | 333° |
| 2026-05-03 21:32 | 18.88969 | -72.58420 | 34001 ft | 460 kts | 333° |
| 2026-05-03 21:33 | 18.94754 | -72.61325 | 34000 ft | 460 kts | 333° |
| 2026-05-03 21:33 | 19.00535 | -72.64224 | 34001 ft | 460 kts | 333° |
| 2026-05-03 21:34 | 19.06319 | -72.67123 | 33996 ft | 459 kts | 333° |
| 2026-05-03 21:34 | 19.12094 | -72.70017 | 34003 ft | 459 kts | 333° |
| 2026-05-03 21:35 | 19.17866 | -72.72920 | 34007 ft | 459 kts | 333° |
| 2026-05-03 21:35 | 19.23639 | -72.75833 | 34009 ft | 459 kts | 333° |
| 2026-05-03 21:36 | 19.29406 | -72.78745 | 34010 ft | 459 kts | 333° |
| 2026-05-03 21:36 | 19.35142 | -72.81638 | 34005 ft | 459 kts | 333° |
| 2026-05-03 21:37 | 19.40908 | -72.84548 | 34010 ft | 459 kts | 333° |
| 2026-05-03 21:37 | 19.46666 | -72.87459 | 34014 ft | 458 kts | 333° |
| 2026-05-03 21:38 | 19.52420 | -72.90368 | 34016 ft | 458 kts | 333° |
| 2026-05-03 21:38 | 19.58182 | -72.93274 | 34015 ft | 458 kts | 333° |
| 2026-05-03 21:39 | 19.63938 | -72.96180 | 34016 ft | 458 kts | 333° |
| 2026-05-03 21:39 | 19.69653 | -72.99077 | 34024 ft | 458 kts | 333° |
| 2026-05-03 21:40 | 19.75404 | -73.01993 | 34023 ft | 458 kts | 333° |
| 2026-05-03 21:40 | 19.81148 | -73.04908 | 34017 ft | 457 kts | 333° |
| 2026-05-03 21:41 | 19.86892 | -73.07818 | 34016 ft | 457 kts | 333° |
| 2026-05-03 21:41 | 19.92640 | -73.10728 | 34024 ft | 457 kts | 333° |
| 2026-05-03 21:42 | 19.98380 | -73.13647 | 34032 ft | 457 kts | 333° |
| 2026-05-03 21:42 | 20.04119 | -73.16576 | 34025 ft | 457 kts | 332° |
| 2026-05-03 21:43 | 20.09847 | -73.19502 | 34028 ft | 456 kts | 332° |
| 2026-05-03 21:43 | 20.15571 | -73.22420 | 34022 ft | 456 kts | 332° |
| 2026-05-03 21:44 | 20.21206 | -73.25504 | 34021 ft | 455 kts | 330° |
| 2026-05-03 21:44 | 20.26778 | -73.28697 | 34020 ft | 455 kts | 330° |
| 2026-05-03 21:45 | 20.32324 | -73.31850 | 34015 ft | 454 kts | 330° |
| 2026-05-03 21:45 | 20.37915 | -73.34990 | 34024 ft | 454 kts | 330° |
| 2026-05-03 21:46 | 20.43510 | -73.38118 | 34020 ft | 454 kts | 330° |
| 2026-05-03 21:46 | 20.49107 | -73.41253 | 34020 ft | 454 kts | 330° |
| 2026-05-03 21:47 | 20.54705 | -73.44390 | 34024 ft | 455 kts | 330° |
| 2026-05-03 21:47 | 20.60300 | -73.47535 | 34024 ft | 455 kts | 330° |
| 2026-05-03 21:48 | 20.65896 | -73.50694 | 34025 ft | 455 kts | 330° |
| 2026-05-03 21:48 | 20.71489 | -73.53845 | 34016 ft | 454 kts | 330° |
| 2026-05-03 21:49 | 20.77088 | -73.56996 | 34021 ft | 454 kts | 330° |
| 2026-05-03 21:49 | 20.82643 | -73.60125 | 34023 ft | 454 kts | 330° |
| 2026-05-03 21:50 | 20.88232 | -73.63283 | 34029 ft | 454 kts | 330° |
| 2026-05-03 21:50 | 20.93820 | -73.66448 | 34027 ft | 454 kts | 330° |
| 2026-05-03 21:51 | 20.98987 | -73.70260 | 34031 ft | 451 kts | 319° |
| 2026-05-03 21:51 | 21.03822 | -73.74543 | 34029 ft | 451 kts | 318° |
| 2026-05-03 21:52 | 21.08656 | -73.78832 | 34030 ft | 451 kts | 318° |
| 2026-05-03 21:52 | 21.13489 | -73.83121 | 34030 ft | 451 kts | 318° |
| 2026-05-03 21:53 | 21.18325 | -73.87405 | 34037 ft | 451 kts | 318° |
| 2026-05-03 21:53 | 21.23160 | -73.91689 | 34034 ft | 451 kts | 318° |
| 2026-05-03 21:54 | 21.27984 | -73.95981 | 34024 ft | 451 kts | 318° |
| 2026-05-03 21:54 | 21.32807 | -74.00278 | 34030 ft | 451 kts | 318° |
| 2026-05-03 21:55 | 21.37643 | -74.04575 | 34044 ft | 451 kts | 318° |
| 2026-05-03 21:55 | 21.42480 | -74.08876 | 34038 ft | 451 kts | 318° |
| 2026-05-03 21:56 | 21.47276 | -74.13160 | 34043 ft | 451 kts | 318° |
| 2026-05-03 21:56 | 21.52102 | -74.17464 | 34047 ft | 451 kts | 318° |
| 2026-05-03 21:57 | 21.56929 | -74.21772 | 34045 ft | 451 kts | 318° |
| 2026-05-03 21:57 | 21.61745 | -74.26088 | 34037 ft | 451 kts | 317° |
| 2026-05-03 21:58 | 21.66560 | -74.30405 | 34045 ft | 451 kts | 318° |
| 2026-05-03 21:58 | 21.71378 | -74.34717 | 34036 ft | 451 kts | 318° |
| 2026-05-03 21:59 | 21.76193 | -74.39026 | 34041 ft | 450 kts | 317° |
| 2026-05-03 21:59 | 21.81002 | -74.43349 | 34045 ft | 450 kts | 317° |
| 2026-05-03 22:00 | 21.85816 | -74.47668 | 34045 ft | 451 kts | 318° |
| 2026-05-03 22:00 | 21.90631 | -74.51988 | 34044 ft | 451 kts | 318° |
| 2026-05-03 22:01 | 21.95441 | -74.56315 | 34035 ft | 450 kts | 317° |
| 2026-05-03 22:01 | 22.00245 | -74.60649 | 34033 ft | 450 kts | 317° |
| 2026-05-03 22:02 | 22.05016 | -74.64958 | 34030 ft | 450 kts | 317° |
| 2026-05-03 22:02 | 22.09822 | -74.69293 | 34038 ft | 450 kts | 317° |
| 2026-05-03 22:03 | 22.14637 | -74.73628 | 34032 ft | 450 kts | 317° |
| 2026-05-03 22:03 | 22.18632 | -74.77232 | 34025 ft | 450 kts | 317° |
| 2026-05-03 22:04 | 22.23434 | -74.81587 | 34037 ft | 451 kts | 317° |
| 2026-05-03 22:04 | 22.28234 | -74.85946 | 34036 ft | 450 kts | 317° |
| 2026-05-03 22:05 | 22.33036 | -74.90294 | 34034 ft | 450 kts | 317° |
| 2026-05-03 22:05 | 22.37841 | -74.94648 | 34028 ft | 450 kts | 317° |
| 2026-05-03 22:06 | 22.42638 | -74.99004 | 34034 ft | 450 kts | 316° |
| 2026-05-03 22:06 | 22.47433 | -75.03363 | 34044 ft | 450 kts | 316° |
| 2026-05-03 22:07 | 22.52227 | -75.07727 | 34043 ft | 450 kts | 316° |
| 2026-05-03 22:07 | 22.56997 | -75.12066 | 34045 ft | 451 kts | 316° |
| 2026-05-03 22:08 | 22.61796 | -75.16435 | 34031 ft | 450 kts | 316° |
| 2026-05-03 22:08 | 22.66579 | -75.20805 | 34043 ft | 450 kts | 316° |
| 2026-05-03 22:09 | 22.71365 | -75.25182 | 34048 ft | 450 kts | 316° |
| 2026-05-03 22:10 | 22.78556 | -75.31747 | 34048 ft | 451 kts | 316° |
| 2026-05-03 22:10 | 22.83353 | -75.36127 | 34050 ft | 451 kts | 316° |
| 2026-05-03 22:11 | 22.88142 | -75.40518 | 34053 ft | 451 kts | 316° |
| 2026-05-03 22:11 | 22.92925 | -75.44915 | 34059 ft | 451 kts | 316° |
| 2026-05-03 22:12 | 22.97711 | -75.49308 | 34060 ft | 450 kts | 316° |
| 2026-05-03 22:12 | 23.02498 | -75.53707 | 34058 ft | 450 kts | 316° |
| 2026-05-03 22:13 | 23.07269 | -75.58106 | 34055 ft | 450 kts | 316° |
| 2026-05-03 22:13 | 23.12040 | -75.62503 | 34059 ft | 449 kts | 315° |
| 2026-05-03 22:14 | 23.16780 | -75.66866 | 34059 ft | 449 kts | 315° |
| 2026-05-03 22:14 | 23.21550 | -75.71258 | 34060 ft | 449 kts | 315° |
| 2026-05-03 22:15 | 23.26309 | -75.75659 | 34058 ft | 449 kts | 315° |
| 2026-05-03 22:15 | 23.31066 | -75.80054 | 34060 ft | 449 kts | 315° |
| 2026-05-03 22:16 | 23.35826 | -75.84453 | 34060 ft | 449 kts | 315° |
| 2026-05-03 22:16 | 23.40582 | -75.88857 | 34059 ft | 449 kts | 315° |
| 2026-05-03 22:17 | 23.45338 | -75.93262 | 34059 ft | 449 kts | 315° |
| 2026-05-03 22:17 | 23.50092 | -75.97669 | 34061 ft | 448 kts | 315° |
| 2026-05-03 22:18 | 23.54843 | -76.02081 | 34061 ft | 448 kts | 315° |
| 2026-05-03 22:18 | 23.59581 | -76.06490 | 34062 ft | 448 kts | 315° |
| 2026-05-03 22:19 | 23.64317 | -76.10896 | 34059 ft | 448 kts | 315° |
| 2026-05-03 22:19 | 23.69051 | -76.15307 | 34059 ft | 447 kts | 315° |
| 2026-05-03 22:20 | 23.73756 | -76.19693 | 34059 ft | 447 kts | 314° |
| 2026-05-03 22:20 | 23.78514 | -76.24136 | 34058 ft | 447 kts | 314° |
| 2026-05-03 22:21 | 23.83232 | -76.28550 | 34057 ft | 447 kts | 314° |
| 2026-05-03 22:21 | 23.87876 | -76.32985 | 34057 ft | 446 kts | 313° |
| 2026-05-03 22:22 | 23.92517 | -76.37479 | 34057 ft | 446 kts | 313° |
| 2026-05-03 22:22 | 23.97167 | -76.41973 | 34055 ft | 446 kts | 313° |
| 2026-05-03 22:23 | 24.01818 | -76.46457 | 34056 ft | 446 kts | 313° |
| 2026-05-03 22:23 | 24.06480 | -76.50935 | 34057 ft | 445 kts | 313° |
| 2026-05-03 22:24 | 24.11137 | -76.55410 | 34057 ft | 445 kts | 313° |
| 2026-05-03 22:24 | 24.15782 | -76.59892 | 34058 ft | 445 kts | 313° |
| 2026-05-03 22:25 | 24.20416 | -76.64385 | 34058 ft | 445 kts | 313° |
| 2026-05-03 22:25 | 24.25048 | -76.68879 | 34057 ft | 445 kts | 313° |
| 2026-05-03 22:26 | 24.29654 | -76.73344 | 34058 ft | 444 kts | 313° |
| 2026-05-03 22:26 | 24.34281 | -76.77829 | 34058 ft | 444 kts | 313° |
| 2026-05-03 22:27 | 24.38903 | -76.82321 | 34055 ft | 443 kts | 313° |
| 2026-05-03 22:27 | 24.43516 | -76.86807 | 34057 ft | 443 kts | 313° |
| 2026-05-03 22:28 | 24.48133 | -76.91299 | 34056 ft | 443 kts | 313° |
| 2026-05-03 22:28 | 24.52741 | -76.95791 | 34057 ft | 443 kts | 313° |
| 2026-05-03 22:29 | 24.57350 | -77.00286 | 34057 ft | 443 kts | 313° |
| 2026-05-03 22:29 | 24.61958 | -77.04782 | 34057 ft | 443 kts | 312° |
| 2026-05-03 22:30 | 24.66560 | -77.09280 | 34057 ft | 442 kts | 312° |
| 2026-05-03 22:30 | 24.71154 | -77.13780 | 34057 ft | 442 kts | 312° |
| 2026-05-03 22:31 | 24.75742 | -77.18285 | 34052 ft | 442 kts | 312° |
| 2026-05-03 22:31 | 24.80304 | -77.22750 | 34050 ft | 442 kts | 312° |
| 2026-05-03 22:32 | 24.84892 | -77.27246 | 34053 ft | 441 kts | 312° |
| 2026-05-03 22:32 | 24.89475 | -77.31748 | 34057 ft | 441 kts | 312° |
| 2026-05-03 22:33 | 24.94053 | -77.36247 | 34058 ft | 441 kts | 312° |
| 2026-05-03 22:33 | 24.98628 | -77.40746 | 34056 ft | 440 kts | 312° |
| 2026-05-03 22:34 | 25.02658 | -77.45675 | 34055 ft | 426 kts | 296° |
| 2026-05-03 22:34 | 25.05119 | -77.51527 | 34054 ft | 419 kts | 288° |
| 2026-05-03 22:35 | 25.07356 | -77.57459 | 34054 ft | 419 kts | 288° |
| 2026-05-03 22:35 | 25.09592 | -77.63397 | 34054 ft | 419 kts | 288° |
| 2026-05-03 22:36 | 25.11816 | -77.69331 | 34053 ft | 418 kts | 288° |
| 2026-05-03 22:36 | 25.14034 | -77.75268 | 34054 ft | 418 kts | 287° |
| 2026-05-03 22:37 | 25.16239 | -77.81207 | 34050 ft | 418 kts | 287° |
| 2026-05-03 22:37 | 25.18444 | -77.87138 | 34054 ft | 418 kts | 287° |
| 2026-05-03 22:38 | 25.20629 | -77.93023 | 34056 ft | 417 kts | 287° |
| 2026-05-03 22:38 | 25.22820 | -77.98935 | 34057 ft | 416 kts | 287° |
| 2026-05-03 22:39 | 25.25012 | -78.04857 | 34058 ft | 416 kts | 287° |
| 2026-05-03 22:39 | 25.27207 | -78.10765 | 34058 ft | 415 kts | 287° |
| 2026-05-03 22:40 | 25.29391 | -78.16679 | 33441 ft | 425 kts | 287° |
| 2026-05-03 22:40 | 25.30510 | -78.19713 | 32650 ft | 427 kts | 287° |
| 2026-05-03 22:40 | 25.31680 | -78.22741 | 31897 ft | 429 kts | 288° |
| 2026-05-03 22:40 | 25.32882 | -78.25719 | 31629 ft | 420 kts | 289° |
| 2026-05-03 22:41 | 25.34080 | -78.28634 | 31228 ft | 414 kts | 289° |
| 2026-05-03 22:41 | 25.35267 | -78.31514 | 30748 ft | 410 kts | 289° |
| 2026-05-03 22:41 | 25.36432 | -78.34368 | 30230 ft | 406 kts | 288° |
| 2026-05-03 22:41 | 25.37577 | -78.37212 | 29702 ft | 403 kts | 288° |
| 2026-05-03 22:42 | 25.38704 | -78.40037 | 29157 ft | 400 kts | 288° |
| 2026-05-03 22:42 | 25.39817 | -78.42839 | 28637 ft | 397 kts | 288° |
| 2026-05-03 22:42 | 25.40921 | -78.45627 | 28112 ft | 394 kts | 288° |
| 2026-05-03 22:42 | 25.42005 | -78.48395 | 27585 ft | 391 kts | 288° |
| 2026-05-03 22:43 | 25.43064 | -78.51149 | 27065 ft | 388 kts | 288° |
| 2026-05-03 22:43 | 25.44109 | -78.53890 | 26550 ft | 384 kts | 288° |
| 2026-05-03 22:43 | 25.45143 | -78.56606 | 26029 ft | 382 kts | 288° |
| 2026-05-03 22:43 | 25.46172 | -78.59300 | 25530 ft | 379 kts | 288° |
| 2026-05-03 22:44 | 25.47181 | -78.61941 | 25044 ft | 376 kts | 288° |
| 2026-05-03 22:44 | 25.48198 | -78.64598 | 24560 ft | 374 kts | 288° |
| 2026-05-03 22:44 | 25.49210 | -78.67242 | 24100 ft | 371 kts | 289° |
| 2026-05-03 22:44 | 25.50205 | -78.69840 | 23912 ft | 362 kts | 289° |
| 2026-05-03 22:45 | 25.51178 | -78.72385 | 23587 ft | 356 kts | 289° |
| 2026-05-03 22:45 | 25.52140 | -78.74897 | 23165 ft | 353 kts | 289° |
| 2026-05-03 22:45 | 25.53094 | -78.77388 | 22718 ft | 351 kts | 289° |
| 2026-05-03 22:45 | 25.54040 | -78.79864 | 22262 ft | 349 kts | 289° |
| 2026-05-03 22:46 | 25.54983 | -78.82333 | 21790 ft | 347 kts | 289° |
| 2026-05-03 22:46 | 25.55918 | -78.84789 | 21325 ft | 345 kts | 289° |
| 2026-05-03 22:46 | 25.56847 | -78.87228 | 20854 ft | 343 kts | 289° |
| 2026-05-03 22:46 | 25.57770 | -78.89653 | 20379 ft | 340 kts | 289° |
| 2026-05-03 22:47 | 25.58688 | -78.92064 | 19901 ft | 339 kts | 289° |
| 2026-05-03 22:47 | 25.59598 | -78.94463 | 19423 ft | 337 kts | 289° |
| 2026-05-03 22:47 | 25.60503 | -78.96851 | 18959 ft | 335 kts | 289° |
| 2026-05-03 22:47 | 25.61405 | -78.99227 | 18496 ft | 334 kts | 289° |
| 2026-05-03 22:48 | 25.62306 | -79.01594 | 18034 ft | 332 kts | 289° |
| 2026-05-03 22:48 | 25.63188 | -79.03911 | 17583 ft | 330 kts | 289° |
| 2026-05-03 22:48 | 25.64070 | -79.06242 | 17123 ft | 328 kts | 289° |
| 2026-05-03 22:48 | 25.64943 | -79.08568 | 16662 ft | 326 kts | 289° |
| 2026-05-03 22:49 | 25.65810 | -79.10887 | 16205 ft | 325 kts | 289° |
| 2026-05-03 22:49 | 25.66673 | -79.13193 | 15743 ft | 323 kts | 289° |
| 2026-05-03 22:49 | 25.67534 | -79.15484 | 15291 ft | 321 kts | 289° |
| 2026-05-03 22:49 | 25.68388 | -79.17760 | 14838 ft | 319 kts | 289° |
| 2026-05-03 22:50 | 25.69240 | -79.20033 | 14382 ft | 318 kts | 289° |
| 2026-05-03 22:50 | 25.70086 | -79.22289 | 13935 ft | 316 kts | 289° |
| 2026-05-03 22:50 | 25.70929 | -79.24535 | 13499 ft | 314 kts | 289° |
| 2026-05-03 22:50 | 25.71768 | -79.26771 | 13054 ft | 313 kts | 289° |
| 2026-05-03 22:51 | 25.72602 | -79.28997 | 12603 ft | 312 kts | 289° |
| 2026-05-03 22:51 | 25.73430 | -79.31217 | 12183 ft | 311 kts | 289° |
| 2026-05-03 22:51 | 25.74246 | -79.33428 | 11737 ft | 309 kts | 289° |
| 2026-05-03 22:51 | 25.74782 | -79.34886 | 11442 ft | 308 kts | 289° |
| 2026-05-03 22:52 | 25.75858 | -79.37829 | 10852 ft | 307 kts | 289° |
| 2026-05-03 22:52 | 25.76385 | -79.39278 | 10564 ft | 305 kts | 289° |
| 2026-05-03 22:52 | 25.77166 | -79.41417 | 10415 ft | 292 kts | 290° |
| 2026-05-03 22:52 | 25.77924 | -79.43486 | 10201 ft | 285 kts | 289° |
| 2026-05-03 22:53 | 25.78666 | -79.45514 | 9860 ft | 283 kts | 290° |
| 2026-05-03 22:53 | 25.79401 | -79.47531 | 9492 ft | 281 kts | 290° |
| 2026-05-03 22:53 | 25.80123 | -79.49546 | 9114 ft | 280 kts | 286° |
| 2026-05-03 22:53 | 25.80331 | -79.51655 | 8728 ft | 275 kts | 260° |
| 2026-05-03 22:54 | 25.79642 | -79.53608 | 8342 ft | 274 kts | 233° |
| 2026-05-03 22:54 | 25.78209 | -79.54979 | 7944 ft | 276 kts | 207° |
| 2026-05-03 22:54 | 25.76346 | -79.55460 | 7549 ft | 279 kts | 180° |
| 2026-05-03 22:54 | 25.74411 | -79.55226 | 7145 ft | 281 kts | 173° |
| 2026-05-03 22:55 | 25.72480 | -79.54949 | 6771 ft | 278 kts | 182° |
| 2026-05-03 22:55 | 25.70597 | -79.55289 | 6431 ft | 273 kts | 203° |
| 2026-05-03 22:55 | 25.69001 | -79.56378 | 6182 ft | 270 kts | 225° |
| 2026-05-03 22:55 | 25.67929 | -79.58061 | 5932 ft | 268 kts | 248° |
| 2026-05-03 22:56 | 25.67544 | -79.60063 | 5682 ft | 267 kts | 270° |
| 2026-05-03 22:56 | 25.67885 | -79.62048 | 5417 ft | 268 kts | 292° |
| 2026-05-03 22:56 | 25.68922 | -79.63785 | 5184 ft | 269 kts | 315° |
| 2026-05-03 22:56 | 25.70474 | -79.64923 | 5012 ft | 271 kts | 338° |
| 2026-05-03 22:57 | 25.72322 | -79.65308 | 4997 ft | 274 kts | 1° |
| 2026-05-03 22:57 | 25.74158 | -79.64871 | 5000 ft | 276 kts | 22° |
| 2026-05-03 22:57 | 25.75913 | -79.63989 | 4999 ft | 277 kts | 24° |
| 2026-05-03 22:57 | 25.77664 | -79.63099 | 5000 ft | 277 kts | 24° |
| 2026-05-03 22:58 | 25.79415 | -79.62212 | 5000 ft | 277 kts | 23° |
| 2026-05-03 22:58 | 25.81129 | -79.61227 | 4994 ft | 278 kts | 37° |
| 2026-05-03 22:58 | 25.82376 | -79.59607 | 5007 ft | 279 kts | 64° |
| 2026-05-03 22:58 | 25.82839 | -79.57531 | 5009 ft | 280 kts | 91° |
| 2026-05-03 22:59 | 25.82431 | -79.55430 | 5011 ft | 280 kts | 111° |
| 2026-05-03 22:59 | 25.81752 | -79.53403 | 5011 ft | 280 kts | 111° |
| 2026-05-03 22:59 | 25.81067 | -79.51378 | 5008 ft | 280 kts | 111° |
| 2026-05-03 22:59 | 25.80382 | -79.49348 | 5009 ft | 281 kts | 111° |
| 2026-05-03 23:00 | 25.79700 | -79.47318 | 5009 ft | 281 kts | 110° |
| 2026-05-03 23:00 | 25.79019 | -79.45286 | 5001 ft | 281 kts | 111° |
| 2026-05-03 23:00 | 25.78341 | -79.43255 | 5001 ft | 281 kts | 110° |
| 2026-05-03 23:00 | 25.77665 | -79.41222 | 4999 ft | 281 kts | 111° |
| 2026-05-03 23:01 | 25.76736 | -79.39337 | 4996 ft | 279 kts | 133° |
| 2026-05-03 23:01 | 25.75194 | -79.38069 | 4999 ft | 277 kts | 159° |
| 2026-05-03 23:01 | 25.73357 | -79.37663 | 4999 ft | 274 kts | 184° |
| 2026-05-03 23:01 | 25.71522 | -79.38149 | 5000 ft | 272 kts | 208° |
| 2026-05-03 23:02 | 25.70047 | -79.39421 | 5000 ft | 270 kts | 232° |
| 2026-05-03 23:02 | 25.69188 | -79.41248 | 5000 ft | 268 kts | 257° |
| 2026-05-03 23:02 | 25.69086 | -79.43296 | 5000 ft | 268 kts | 280° |
| 2026-05-03 23:02 | 25.69750 | -79.45214 | 5000 ft | 269 kts | 304° |
| 2026-05-03 23:03 | 25.71099 | -79.46680 | 5000 ft | 271 kts | 328° |
| 2026-05-03 23:03 | 25.72845 | -79.47378 | 5000 ft | 273 kts | 352° |
| 2026-05-03 23:03 | 25.74773 | -79.47479 | 5001 ft | 275 kts | 358° |
| 2026-05-03 23:03 | 25.76664 | -79.47485 | 5001 ft | 275 kts | 358° |
| 2026-05-03 23:04 | 25.78517 | -79.47889 | 5000 ft | 272 kts | 334° |
| 2026-05-03 23:04 | 25.80030 | -79.49107 | 5000 ft | 269 kts | 309° |
| 2026-05-03 23:04 | 25.80954 | -79.50898 | 5008 ft | 269 kts | 292° |
| 2026-05-03 23:04 | 25.81638 | -79.52834 | 5009 ft | 269 kts | 290° |
| 2026-05-03 23:05 | 25.82281 | -79.54783 | 5009 ft | 269 kts | 289° |
| 2026-05-03 23:05 | 25.82911 | -79.56742 | 5009 ft | 269 kts | 289° |
| 2026-05-03 23:05 | 25.83541 | -79.58700 | 5007 ft | 269 kts | 289° |
| 2026-05-03 23:05 | 25.84120 | -79.60674 | 5004 ft | 269 kts | 279° |
| 2026-05-03 23:06 | 25.84057 | -79.62724 | 5008 ft | 269 kts | 254° |
| 2026-05-03 23:06 | 25.83190 | -79.64544 | 5009 ft | 270 kts | 229° |
| 2026-05-03 23:06 | 25.81684 | -79.65766 | 5008 ft | 272 kts | 202° |
| 2026-05-03 23:06 | 25.79832 | -79.66137 | 5008 ft | 274 kts | 176° |
| 2026-05-03 23:07 | 25.78004 | -79.65546 | 5003 ft | 277 kts | 149° |
| 2026-05-03 23:07 | 25.76611 | -79.64093 | 5001 ft | 278 kts | 121° |
| 2026-05-03 23:07 | 25.76037 | -79.62064 | 5000 ft | 279 kts | 90° |
| 2026-05-03 23:07 | 25.76447 | -79.59987 | 5000 ft | 278 kts | 60° |
| 2026-05-03 23:08 | 25.77712 | -79.58400 | 5001 ft | 276 kts | 32° |
| 2026-05-03 23:08 | 25.79489 | -79.57687 | 5002 ft | 273 kts | 2° |
| 2026-05-03 23:08 | 25.81332 | -79.58040 | 5000 ft | 270 kts | 332° |
| 2026-05-03 23:08 | 25.82881 | -79.59207 | 5007 ft | 270 kts | 316° |
| 2026-05-03 23:09 | 25.84107 | -79.60775 | 5009 ft | 269 kts | 302° |
| 2026-05-03 23:09 | 25.84943 | -79.62620 | 5010 ft | 269 kts | 292° |
| 2026-05-03 23:09 | 25.85662 | -79.64537 | 5009 ft | 269 kts | 292° |
| 2026-05-03 23:09 | 25.86426 | -79.66436 | 5009 ft | 270 kts | 294° |
| 2026-05-03 23:10 | 25.87230 | -79.68316 | 5007 ft | 270 kts | 295° |
| 2026-05-03 23:10 | 25.88052 | -79.70192 | 5009 ft | 270 kts | 295° |
| 2026-05-03 23:10 | 25.88869 | -79.72069 | 5008 ft | 270 kts | 295° |
| 2026-05-03 23:10 | 25.89682 | -79.73951 | 5010 ft | 270 kts | 295° |
| 2026-05-03 23:11 | 25.90491 | -79.75835 | 5009 ft | 270 kts | 295° |
| 2026-05-03 23:11 | 25.91298 | -79.77718 | 5001 ft | 270 kts | 295° |
| 2026-05-03 23:11 | 25.92094 | -79.79575 | 5000 ft | 270 kts | 295° |
| 2026-05-03 23:11 | 25.92900 | -79.81461 | 4999 ft | 270 kts | 295° |
| 2026-05-03 23:12 | 25.93704 | -79.83343 | 4999 ft | 270 kts | 295° |
| 2026-05-03 23:12 | 25.94509 | -79.85228 | 5000 ft | 270 kts | 295° |
| 2026-05-03 23:12 | 25.95314 | -79.87115 | 5000 ft | 270 kts | 295° |
| 2026-05-03 23:12 | 25.96116 | -79.88996 | 5000 ft | 270 kts | 295° |
| 2026-05-03 23:13 | 25.96919 | -79.90882 | 5000 ft | 270 kts | 295° |
| 2026-05-03 23:13 | 25.97723 | -79.92771 | 5000 ft | 270 kts | 295° |
| 2026-05-03 23:13 | 25.98543 | -79.94645 | 4999 ft | 270 kts | 299° |
| 2026-05-03 23:13 | 25.99652 | -79.96329 | 5000 ft | 270 kts | 312° |
| 2026-05-03 23:14 | 26.00918 | -79.97877 | 5000 ft | 270 kts | 311° |
| 2026-05-03 23:14 | 26.02178 | -79.99426 | 5000 ft | 271 kts | 311° |
| 2026-05-03 23:14 | 26.03441 | -80.00985 | 4999 ft | 270 kts | 311° |
| 2026-05-03 23:14 | 26.04701 | -80.02542 | 5000 ft | 271 kts | 311° |
| 2026-05-03 23:15 | 26.05960 | -80.04097 | 5000 ft | 271 kts | 311° |
| 2026-05-03 23:15 | 26.07218 | -80.05650 | 5000 ft | 271 kts | 311° |
| 2026-05-03 23:15 | 26.08476 | -80.07205 | 5000 ft | 271 kts | 311° |
| 2026-05-03 23:15 | 26.09739 | -80.08767 | 5000 ft | 271 kts | 311° |
| 2026-05-03 23:16 | 26.10994 | -80.10322 | 5000 ft | 271 kts | 311° |
| 2026-05-03 23:16 | 26.12255 | -80.11882 | 5000 ft | 271 kts | 311° |
| 2026-05-03 23:16 | 26.13510 | -80.13444 | 5005 ft | 271 kts | 309° |
| 2026-05-03 23:16 | 26.14499 | -80.15189 | 5003 ft | 261 kts | 292° |
| 2026-05-03 23:17 | 26.14976 | -80.17037 | 5004 ft | 245 kts | 277° |
| 2026-05-03 23:17 | 26.15044 | -80.18849 | 5013 ft | 225 kts | 270° |
| 2026-05-03 23:17 | 26.15047 | -80.20502 | 5014 ft | 202 kts | 270° |
| 2026-05-03 23:17 | 26.15054 | -80.22019 | 4761 ft | 192 kts | 270° |
| 2026-05-03 23:18 | 26.15064 | -80.23500 | 4363 ft | 191 kts | 271° |
| 2026-05-03 23:18 | 26.15072 | -80.24973 | 4031 ft | 189 kts | 271° |
| 2026-05-03 23:18 | 26.15085 | -80.26445 | 4017 ft | 193 kts | 271° |
| 2026-05-03 23:18 | 26.15106 | -80.27943 | 4008 ft | 194 kts | 271° |
| 2026-05-03 23:19 | 26.15118 | -80.29443 | 4014 ft | 194 kts | 271° |
| 2026-05-03 23:19 | 26.15118 | -80.30948 | 4011 ft | 194 kts | 270° |
| 2026-05-03 23:19 | 26.15109 | -80.32449 | 4000 ft | 194 kts | 270° |
| 2026-05-03 23:19 | 26.15092 | -80.33951 | 4013 ft | 194 kts | 270° |
| 2026-05-03 23:20 | 26.15070 | -80.35455 | 4012 ft | 194 kts | 270° |
| 2026-05-03 23:20 | 26.15046 | -80.36957 | 4013 ft | 194 kts | 270° |
| 2026-05-03 23:20 | 26.15020 | -80.38461 | 4013 ft | 194 kts | 270° |
| 2026-05-03 23:20 | 26.14992 | -80.39965 | 3999 ft | 194 kts | 270° |
| 2026-05-03 23:21 | 26.14965 | -80.41469 | 4005 ft | 194 kts | 270° |
| 2026-05-03 23:21 | 26.14937 | -80.42972 | 4012 ft | 194 kts | 270° |
| 2026-05-03 23:21 | 26.14908 | -80.44477 | 4010 ft | 194 kts | 270° |
| 2026-05-03 23:21 | 26.14877 | -80.45979 | 4002 ft | 194 kts | 270° |
| 2026-05-03 23:22 | 26.14809 | -80.48988 | 4003 ft | 195 kts | 269° |
| 2026-05-03 23:22 | 26.14774 | -80.50495 | 4008 ft | 195 kts | 269° |
| 2026-05-03 23:22 | 26.14740 | -80.52000 | 4013 ft | 195 kts | 270° |
| 2026-05-03 23:23 | 26.14707 | -80.53507 | 4002 ft | 194 kts | 270° |
| 2026-05-03 23:23 | 26.14675 | -80.55013 | 4002 ft | 194 kts | 270° |
| 2026-05-03 23:23 | 26.14641 | -80.56519 | 4012 ft | 195 kts | 269° |
| 2026-05-03 23:23 | 26.14607 | -80.58026 | 4007 ft | 195 kts | 270° |
| 2026-05-03 23:24 | 26.14430 | -80.59510 | 4001 ft | 195 kts | 247° |
| 2026-05-03 23:24 | 26.13539 | -80.60619 | 4006 ft | 197 kts | 208° |
| 2026-05-03 23:24 | 26.12227 | -80.60909 | 4012 ft | 198 kts | 175° |
| 2026-05-03 23:24 | 26.10951 | -80.60383 | 4008 ft | 198 kts | 142° |
| 2026-05-03 23:25 | 26.10121 | -80.59191 | 4017 ft | 197 kts | 111° |
| 2026-05-03 23:25 | 26.09652 | -80.57770 | 4007 ft | 197 kts | 109° |
| 2026-05-03 23:25 | 26.09182 | -80.56327 | 4005 ft | 197 kts | 109° |
| 2026-05-03 23:25 | 26.08719 | -80.54908 | 4017 ft | 197 kts | 109° |
| 2026-05-03 23:26 | 26.08254 | -80.53477 | 4016 ft | 197 kts | 108° |
| 2026-05-03 23:26 | 26.07927 | -80.51994 | 4013 ft | 197 kts | 97° |
| 2026-05-03 23:26 | 26.07848 | -80.50483 | 4015 ft | 196 kts | 88° |
| 2026-05-03 23:26 | 26.07850 | -80.48955 | 4004 ft | 196 kts | 89° |
| 2026-05-03 23:27 | 26.07844 | -80.47542 | 4013 ft | 196 kts | 89° |
| 2026-05-03 23:27 | 26.07837 | -80.46022 | 4007 ft | 196 kts | 89° |
| 2026-05-03 23:27 | 26.07826 | -80.44528 | 4015 ft | 196 kts | 89° |
| 2026-05-03 23:27 | 26.07816 | -80.43052 | 4014 ft | 196 kts | 89° |
| 2026-05-03 23:28 | 26.07809 | -80.41525 | 4012 ft | 196 kts | 89° |
| 2026-05-03 23:28 | 26.07803 | -80.40006 | 3993 ft | 197 kts | 89° |
| 2026-05-03 23:28 | 26.07797 | -80.38503 | 3814 ft | 196 kts | 89° |
| 2026-05-03 23:28 | 26.07791 | -80.36986 | 3574 ft | 195 kts | 89° |
| 2026-05-03 23:29 | 26.07785 | -80.35492 | 3326 ft | 193 kts | 89° |
| 2026-05-03 23:29 | 26.07778 | -80.34007 | 3073 ft | 191 kts | 89° |
| 2026-05-03 23:29 | 26.07772 | -80.32534 | 2821 ft | 190 kts | 89° |
| 2026-05-03 23:29 | 26.07765 | -80.31068 | 2567 ft | 189 kts | 88° |
| 2026-05-03 23:30 | 26.07759 | -80.29607 | 2319 ft | 188 kts | 88° |
| 2026-05-03 23:30 | 26.07752 | -80.28156 | 2070 ft | 188 kts | 88° |
| 2026-05-03 23:30 | 26.07746 | -80.26694 | 1818 ft | 187 kts | 88° |
| 2026-05-03 23:30 | 26.07739 | -80.25251 | 1572 ft | 187 kts | 88° |
| 2026-05-03 23:31 | 26.07731 | -80.23871 | 1336 ft | 172 kts | 88° |
| 2026-05-03 23:31 | 26.07724 | -80.22569 | 1105 ft | 166 kts | 88° |
| 2026-05-03 23:31 | 26.07718 | -80.21336 | 912 ft | 154 kts | 88° |
| 2026-05-03 23:31 | 26.07713 | -80.20164 | 698 ft | 150 kts | 88° |
| 2026-05-03 23:32 | 26.07707 | -80.19011 | 499 ft | 149 kts | 88° |
| 2026-05-03 23:32 | 26.07701 | -80.17864 | 310 ft | 148 kts | 88° |
| 2026-05-03 23:32 | 26.07695 | -80.16712 | 108 ft | 148 kts | 89° |
| 2026-05-03 23:32 | 26.07692 | -80.15638 | 16 ft | 112 kts | 90° |
| 2026-05-03 23:33 | 26.07686 | -80.15100 | 15 ft | 37 kts | 91° |
| 2026-05-03 23:33 | 26.07685 | -80.14847 | 19 ft | 30 kts | 90° |
| 2026-05-03 23:33 | 26.07684 | -80.14619 | 19 ft | 29 kts | 90° |
| 2026-05-03 23:33 | 26.07638 | -80.14422 | 20 ft | 14 kts | 120° |
| 2026-05-03 23:34 | 26.07609 | -80.14367 | 20 ft | 1 kts | 120° |
| 2026-05-03 23:34 | 26.07607 | -80.14362 | 19 ft | 0 kts | 120° |